Time;durP1;ratioP1;P1;durP2;ratioP2;P2;SDS_P1;SDS_P2;PMS_P1;PMS_P2;Temp;Humidity;BMP_temperature;BMP_pressure;BME280_temperature;BME280_humidity;BME280_pressure;Samples;Min_cycle;Max_cycle;Signal;HPM_P1;HPM_P2
2023/12/17 00:00:11;;;;;;;;;59.00;48.75;;;;;12.66;100.00;103413.44;2088225;28;44841;-53
2023/12/17 00:01:12;;;;;;;;;57.00;47.80;;;;;12.65;100.00;103411.63;2088590;28;44787;-54
2023/12/17 00:02:12;;;;;;;;;58.25;47.00;;;;;12.64;100.00;103405.41;2087869;28;45090;-54
2023/12/17 00:03:13;;;;;;;;;53.75;43.50;;;;;12.67;100.00;103415.22;2088184;28;45002;-57
2023/12/17 00:04:13;;;;;;;;;52.00;44.00;;;;;12.67;100.00;103408.13;2088349;28;45004;-53
2023/12/17 00:05:15;;;;;;;;;52.50;43.25;;;;;12.66;100.00;103403.66;2088430;28;44881;-55
2023/12/17 00:06:16;;;;;;;;;54.60;45.40;;;;;12.66;100.00;103402.78;2088530;28;44739;-53
2023/12/17 00:07:17;;;;;;;;;52.80;43.60;;;;;12.64;100.00;103399.19;2088365;28;45101;-56
2023/12/17 00:08:19;;;;;;;;;52.50;41.50;;;;;12.64;100.00;103408.09;2087855;28;44878;-55
2023/12/17 00:09:21;;;;;;;;;53.60;45.20;;;;;12.63;100.00;103400.06;2088212;28;44912;-52
2023/12/17 00:10:22;;;;;;;;;53.00;44.75;;;;;12.60;100.00;103403.59;2086562;28;45156;-57
2023/12/17 00:11:22;;;;;;;;;47.80;40.20;;;;;12.61;100.00;103405.38;2088000;28;45255;-56
2023/12/17 00:12:23;;;;;;;;;51.50;43.00;;;;;12.61;100.00;103404.50;2088446;28;44799;-54
2023/12/17 00:13:24;;;;;;;;;55.50;42.00;;;;;12.61;100.00;103407.16;2088421;28;45002;-55
2023/12/17 00:14:25;;;;;;;;;54.20;43.60;;;;;12.59;100.00;103411.56;2088319;28;44863;-54
2023/12/17 00:15:25;;;;;;;;;50.00;42.25;;;;;12.59;100.00;103415.13;2088108;28;44802;-54
2023/12/17 00:16:26;;;;;;;;;44.25;39.00;;;;;12.58;100.00;103418.69;2078787;28;44830;-55
2023/12/17 00:17:27;;;;;;;;;47.50;39.25;;;;;12.57;100.00;103416.84;2077878;28;45237;-55
2023/12/17 00:18:27;;;;;;;;;53.25;44.00;;;;;12.56;100.00;103419.50;2088264;28;44903;-56
2023/12/17 00:19:28;;;;;;;;;50.50;43.00;;;;;12.56;100.00;103420.41;2088200;28;44844;-56
2023/12/17 00:20:29;;;;;;;;;49.75;41.75;;;;;12.54;100.00;103418.59;2088279;28;45220;-56
2023/12/17 00:21:30;;;;;;;;;51.20;41.60;;;;;12.54;100.00;103421.25;2087387;28;45013;-55
2023/12/17 00:22:31;;;;;;;;;52.00;42.75;;;;;12.55;100.00;103420.38;2079928;28;44915;-56
2023/12/17 00:23:31;;;;;;;;;51.75;43.25;;;;;12.56;100.00;103420.41;2087876;28;44853;-55
2023/12/17 00:24:32;;;;;;;;;52.00;43.50;;;;;12.56;100.00;103424.81;2088097;28;44913;-56
2023/12/17 00:25:33;;;;;;;;;51.50;42.00;;;;;12.57;100.00;103423.94;2087229;28;44980;-56
2023/12/17 00:26:33;;;;;;;;;49.75;42.00;;;;;12.56;100.00;103420.41;2087895;28;44875;-56
2023/12/17 00:27:34;;;;;;;;;55.25;46.00;;;;;12.55;100.00;103418.59;2088235;28;44881;-54
2023/12/17 00:28:35;;;;;;;;;41.50;36.25;;;;;12.54;100.00;103422.16;2085536;28;45005;-55
2023/12/17 00:29:36;;;;;;;;;50.00;41.00;;;;;12.53;100.00;103427.47;2087387;28;44909;-53
2023/12/17 00:30:36;;;;;;;;;49.50;41.25;;;;;12.53;100.00;103417.69;2087846;28;44851;-55
2023/12/17 00:31:37;;;;;;;;;51.50;43.00;;;;;12.52;100.00;103421.25;2081264;28;44878;-53
2023/12/17 00:32:37;;;;;;;;;48.00;41.75;;;;;12.53;100.00;103424.78;2085761;28;44879;-56
2023/12/17 00:33:38;;;;;;;;;49.50;40.00;;;;;12.53;100.00;103433.69;2090358;28;44839;-58
2023/12/17 00:34:39;;;;;;;;;46.75;38.25;;;;;12.53;100.00;103433.69;2087985;28;45004;-54
2023/12/17 00:35:39;;;;;;;;;49.25;42.25;;;;;12.55;100.00;103436.38;2081954;28;45198;-56
2023/12/17 00:36:40;;;;;;;;;50.25;40.00;;;;;12.56;100.00;103439.03;2086908;28;44867;-53
2023/12/17 00:37:41;;;;;;;;;44.25;38.00;;;;;12.48;100.00;103440.72;2083128;28;45146;-53
2023/12/17 00:38:41;;;;;;;;;49.00;41.00;;;;;12.51;100.00;103427.44;2084773;28;45104;-56
2023/12/17 00:39:42;;;;;;;;;50.75;42.25;;;;;12.51;100.00;103427.44;2087441;28;44963;-55
2023/12/17 00:40:43;;;;;;;;;50.50;41.25;;;;;12.54;100.00;103430.13;2085596;28;44850;-55
2023/12/17 00:41:43;;;;;;;;;51.00;42.00;;;;;12.55;100.00;103431.94;2087854;28;45012;-57
2023/12/17 00:42:44;;;;;;;;;49.00;41.00;;;;;12.53;100.00;103430.13;2088195;28;44807;-53
2023/12/17 00:43:45;;;;;;;;;45.60;39.20;;;;;12.53;100.00;103432.78;2083660;28;44997;-57
2023/12/17 00:44:46;;;;;;;;;52.00;43.50;;;;;12.50;100.00;103428.31;2087790;28;44902;-57
2023/12/17 00:45:46;;;;;;;;;50.25;39.50;;;;;12.48;100.00;103427.41;2087819;28;44889;-55
2023/12/17 00:46:47;;;;;;;;;49.00;41.75;;;;;12.48;100.00;103423.84;2088252;28;44790;-55
2023/12/17 00:47:48;;;;;;;;;47.50;40.00;;;;;12.48;100.00;103423.84;2088112;28;44856;-55
2023/12/17 00:48:48;;;;;;;;;50.75;42.00;;;;;12.47;100.00;103425.63;2087874;28;44876;-57
2023/12/17 00:49:49;;;;;;;;;48.00;40.50;;;;;12.48;100.00;103415.88;2085450;28;45086;-54
2023/12/17 00:50:50;;;;;;;;;45.00;38.75;;;;;12.46;100.00;103418.50;2085707;28;44975;-55
2023/12/17 00:51:50;;;;;;;;;49.25;41.50;;;;;12.39;100.00;103421.94;2084034;28;45285;-55
2023/12/17 00:52:51;;;;;;;;;44.00;38.50;;;;;12.45;100.00;103426.44;2088136;28;44806;-56
2023/12/17 00:53:51;;;;;;;;;18.50;14.50;;;;;12.42;100.00;103435.31;2087766;28;44989;-57
2023/12/17 00:54:52;;;;;;;;;49.50;41.75;;;;;12.42;100.00;103437.97;2087558;28;44978;-56
2023/12/17 00:55:53;;;;;;;;;49.00;41.00;;;;;12.37;100.00;103440.56;2087993;28;44784;-55
2023/12/17 00:56:53;;;;;;;;;49.50;40.75;;;;;12.40;100.00;103452.13;2088088;28;44787;-57
2023/12/17 00:57:54;;;;;;;;;49.00;40.00;;;;;12.41;100.00;103446.81;2088039;28;44969;-55
2023/12/17 00:58:55;;;;;;;;;49.50;41.50;;;;;12.45;100.00;103443.34;2085233;28;45016;-56
2023/12/17 00:59:56;;;;;;;;;50.25;42.00;;;;;12.44;100.00;103460.19;2088090;28;44893;-57
2023/12/17 01:00:57;;;;;;;;;53.60;44.40;;;;;12.44;100.00;103445.97;2088149;28;44896;-55
2023/12/17 01:01:57;;;;;;;;;53.00;44.75;;;;;12.44;100.00;103448.63;2087118;28;44913;-56
2023/12/17 01:02:58;;;;;;;;;49.25;41.50;;;;;12.43;100.00;103444.19;2087263;28;44806;-55
2023/12/17 01:03:59;;;;;;;;;50.50;41.25;;;;;12.41;100.00;103452.16;2088133;28;44839;-56
2023/12/17 01:04:59;;;;;;;;;52.75;43.50;;;;;12.37;100.00;103453.88;2087900;28;44837;-54
2023/12/17 01:06:00;;;;;;;;;55.25;44.00;;;;;12.35;100.00;103452.09;2086648;28;45716;-55
2023/12/17 01:07:01;;;;;;;;;52.00;42.00;;;;;12.34;100.00;103459.19;2088122;28;44969;-55
2023/12/17 01:08:01;;;;;;;;;57.00;45.00;;;;;12.31;100.00;103459.09;2087812;28;44925;-54
2023/12/17 01:09:02;;;;;;;;;49.00;42.25;;;;;12.29;100.00;103467.94;2087962;28;44882;-55
2023/12/17 01:10:03;;;;;;;;;51.50;42.25;;;;;12.27;100.00;103462.59;2087881;28;44830;-55
2023/12/17 01:11:04;;;;;;;;;50.80;42.00;;;;;12.26;100.00;103466.16;2088464;28;44941;-56
2023/12/17 01:12:05;;;;;;;;;47.75;40.75;;;;;12.25;100.00;103467.03;2087704;28;44949;-55
2023/12/17 01:13:06;;;;;;;;;49.60;41.60;;;;;12.24;100.00;103467.91;2087473;28;44804;-55
2023/12/17 01:14:06;;;;;;;;;55.00;44.25;;;;;12.26;100.00;103475.91;2087333;28;45059;-54
2023/12/17 01:15:07;;;;;;;;;51.25;43.50;;;;;12.26;100.00;103476.78;2088224;28;45036;-54
2023/12/17 01:16:08;;;;;;;;;51.40;42.00;;;;;12.26;100.00;103474.13;2086479;28;44969;-55
2023/12/17 01:17:09;;;;;;;;;56.00;47.25;;;;;12.26;100.00;103468.81;2087876;28;44834;-55
2023/12/17 01:18:09;;;;;;;;;50.50;42.50;;;;;12.25;100.00;103464.34;2087788;28;44875;-55
2023/12/17 01:19:10;;;;;;;;;49.50;42.75;;;;;12.24;100.00;103459.00;2086826;28;44912;-55
2023/12/17 01:20:11;;;;;;;;;54.25;45.75;;;;;12.23;100.00;103457.22;2087686;28;44886;-52
2023/12/17 01:21:12;;;;;;;;;53.60;44.60;;;;;12.21;100.00;103456.31;2087061;28;45005;-56
2023/12/17 01:22:13;;;;;;;;;56.50;44.75;;;;;12.16;100.00;103460.66;2087392;28;44910;-54
2023/12/17 01:23:14;;;;;;;;;52.00;44.00;;;;;12.14;100.00;103457.06;2086996;28;45042;-55
2023/12/17 01:24:14;;;;;;;;;51.25;43.25;;;;;12.13;100.00;103460.59;2087270;28;44825;-54
2023/12/17 01:25:15;;;;;;;;;55.00;46.50;;;;;12.10;100.00;103464.13;2087805;28;44863;-52
2023/12/17 01:26:22;;;;;;;;;53.50;45.50;;;;;12.10;100.00;103468.56;2085556;28;45064;-56
2023/12/17 01:27:23;;;;;;;;;51.40;42.60;;;;;12.06;100.00;103467.59;2087879;28;44981;-55
2023/12/17 01:28:24;;;;;;;;;51.50;43.75;;;;;12.05;100.00;103463.13;2095936;28;44897;-55
2023/12/17 01:29:25;;;;;;;;;52.50;42.50;;;;;12.02;100.00;103465.75;2095726;28;45134;-53
2023/12/17 01:30:25;;;;;;;;;50.25;41.75;;;;;11.98;100.00;103461.25;2087106;28;44968;-53
2023/12/17 01:31:25;;;;;;;;;52.75;44.25;;;;;12.00;100.00;103465.72;2086329;28;44870;-53
2023/12/17 01:32:26;;;;;;;;;50.50;42.50;;;;;12.01;100.00;103455.97;2087048;28;45120;-54
2023/12/17 01:33:27;;;;;;;;;52.75;44.25;;;;;12.02;100.00;103455.09;2083223;28;44909;-53
2023/12/17 01:34:27;;;;;;;;;53.00;43.75;;;;;12.02;100.00;103460.44;2087881;28;44970;-52
2023/12/17 01:35:30;;;;;;;;;50.75;43.50;;;;;12.03;100.00;103460.44;2087935;28;44949;-54
2023/12/17 01:36:31;;;;;;;;;55.20;44.60;;;;;12.03;100.00;103456.91;2085549;28;44922;-55
2023/12/17 01:37:31;;;;;;;;;52.25;43.50;;;;;12.01;100.00;103455.97;2091327;28;45106;-56
2023/12/17 01:38:32;;;;;;;;;55.50;46.25;;;;;12.00;100.00;103465.72;2080461;28;44910;-53
2023/12/17 01:39:33;;;;;;;;;54.50;44.50;;;;;12.01;100.00;103458.66;2085877;28;44881;-55
2023/12/17 01:40:34;;;;;;;;;53.75;44.75;;;;;12.09;100.00;103462.34;2087866;28;44955;-57
2023/12/17 01:41:34;;;;;;;;;54.75;45.25;;;;;12.12;100.00;103454.38;2087240;28;44933;-56
2023/12/17 01:42:35;;;;;;;;;55.50;45.50;;;;;12.12;100.00;103462.38;2087505;28;44850;-55
2023/12/17 01:43:36;;;;;;;;;52.00;43.25;;;;;12.12;100.00;103450.84;2087862;28;44875;-55
2023/12/17 01:44:37;;;;;;;;;48.20;41.00;;;;;12.12;100.00;103456.16;2081826;28;44858;-55
2023/12/17 01:45:37;;;;;;;;;51.00;42.50;;;;;12.10;100.00;103458.81;2086208;28;46582;-57
2023/12/17 01:46:40;;;;;;;;;53.50;42.50;;;;;12.08;100.00;103445.47;2087871;28;44973;-57
2023/12/17 01:47:40;;;;;;;;;52.40;44.20;;;;;12.06;100.00;103448.94;2088061;28;44921;-54
2023/12/17 01:48:41;;;;;;;;;51.50;43.00;;;;;12.03;100.00;103441.81;2086256;28;45045;-52
2023/12/17 01:49:42;;;;;;;;;52.20;43.00;;;;;12.04;100.00;103443.59;2088178;28;44927;-56
2023/12/17 01:50:43;;;;;;;;;51.25;43.25;;;;;12.05;100.00;103439.19;2087834;28;44943;-54
2023/12/17 01:51:44;;;;;;;;;50.25;43.50;;;;;12.04;100.00;103448.94;2087767;28;44974;-54
2023/12/17 01:52:44;;;;;;;;;51.75;43.00;;;;;12.03;100.00;103449.81;2087005;28;44965;-58
2023/12/17 01:53:45;;;;;;;;;48.75;40.50;;;;;12.03;100.00;103441.81;2087382;28;44984;-56
2023/12/17 01:54:46;;;;;;;;;52.50;44.25;;;;;12.05;100.00;103448.06;2087633;28;45111;-56
2023/12/17 01:55:49;;;;;;;;;49.25;40.75;;;;;12.07;100.00;103443.69;2087142;28;44891;-54
2023/12/17 01:56:49;;;;;;;;;53.80;43.80;;;;;12.10;100.00;103450.81;2082838;28;45086;-57
2023/12/17 01:57:50;;;;;;;;;49.00;41.25;;;;;12.12;100.00;103448.16;2088068;28;44953;-55
2023/12/17 01:58:53;;;;;;;;;53.25;43.00;;;;;12.12;100.00;103449.06;2087414;28;45266;-57
2023/12/17 01:59:53;;;;;;;;;53.80;45.40;;;;;12.12;100.00;103453.50;2087868;28;45030;-52
2023/12/17 02:00:55;;;;;;;;;57.75;45.00;;;;;12.10;100.00;103452.59;2087726;28;44927;-57
2023/12/17 02:01:56;;;;;;;;;50.20;42.40;;;;;12.10;100.00;103452.59;2087260;28;44882;-55
2023/12/17 02:02:57;;;;;;;;;52.00;43.40;;;;;12.09;100.00;103457.00;2087529;28;44920;-57
2023/12/17 02:03:58;;;;;;;;;48.40;41.60;;;;;12.09;100.00;103446.38;2087609;28;45111;-56
2023/12/17 02:05:01;;;;;;;;;52.00;43.00;;;;;12.12;100.00;103446.41;2086980;28;46076;-54
2023/12/17 02:06:02;;;;;;;;;53.00;42.80;;;;;12.12;100.00;103450.84;2085714;28;45118;-55
2023/12/17 02:07:02;;;;;;;;;52.75;44.25;;;;;12.12;100.00;103445.50;2086776;28;45491;-54
2023/12/17 02:08:04;;;;;;;;;50.75;43.00;;;;;12.12;100.00;103448.16;2085814;28;45338;-53
2023/12/17 02:09:04;;;;;;;;;52.80;43.80;;;;;12.11;100.00;103449.94;2081674;28;44910;-55
2023/12/17 02:10:06;;;;;;;;;50.00;40.50;;;;;12.12;100.00;103448.16;2087590;28;44915;-55
2023/12/17 02:11:07;;;;;;;;;50.80;42.20;;;;;12.11;100.00;103439.28;2087540;28;44866;-55
2023/12/17 02:12:08;;;;;;;;;45.25;40.00;;;;;12.11;100.00;103455.25;2088297;28;44813;-55
2023/12/17 02:13:10;;;;;;;;;37.75;33.75;;;;;12.07;100.00;103446.34;2087742;28;44947;-55
2023/12/17 02:14:10;;;;;;;;;51.20;42.40;;;;;12.08;100.00;103442.81;2081272;28;44890;-55
2023/12/17 02:15:11;;;;;;;;;48.25;39.50;;;;;12.05;100.00;103437.41;2086235;28;44850;-55
2023/12/17 02:16:13;;;;;;;;;53.00;43.00;;;;;12.07;100.00;103437.47;2087857;28;44893;-52
2023/12/17 02:17:14;;;;;;;;;53.00;43.20;;;;;12.05;100.00;103437.41;2087901;28;44916;-55
2023/12/17 02:18:14;;;;;;;;;53.50;44.00;;;;;12.05;100.00;103431.19;2087976;28;44851;-54
2023/12/17 02:19:15;;;;;;;;;50.25;42.50;;;;;12.02;100.00;103429.38;2087947;28;44772;-53
2023/12/17 02:20:15;;;;;;;;;47.00;41.25;;;;;12.02;100.00;103431.16;2087703;28;45055;-53
2023/12/17 02:21:16;;;;;;;;;52.50;42.75;;;;;12.03;100.00;103423.19;2085985;28;44932;-56
2023/12/17 02:22:17;;;;;;;;;51.75;42.50;;;;;12.00;100.00;103425.81;2087635;28;44895;-57
2023/12/17 02:23:17;;;;;;;;;52.00;42.50;;;;;11.95;100.00;103427.53;2086607;28;44909;-53
2023/12/17 02:24:18;;;;;;;;;52.75;43.50;;;;;11.97;100.00;103422.22;2087421;28;44793;-55
2023/12/17 02:25:19;;;;;;;;;49.50;41.00;;;;;11.95;100.00;103432.84;2087486;28;45003;-57
2023/12/17 02:26:19;;;;;;;;;50.75;43.00;;;;;11.94;100.00;103427.47;2087848;28;44949;-55
2023/12/17 02:27:25;;;;;;;;;51.25;41.75;;;;;11.95;100.00;103431.94;2087259;28;44889;-56
2023/12/17 02:28:26;;;;;;;;;50.60;42.60;;;;;11.95;100.00;103424.84;2082394;28;44894;-54
2023/12/17 02:29:26;;;;;;;;;48.75;41.00;;;;;11.95;100.00;103424.84;2087966;28;45328;-57
2023/12/17 02:30:27;;;;;;;;;51.00;42.50;;;;;11.94;100.00;103415.09;2088123;28;44843;-56
2023/12/17 02:31:28;;;;;;;;;55.00;42.00;;;;;11.93;100.00;103410.59;2087657;28;45120;-54
2023/12/17 02:32:29;;;;;;;;;48.25;40.50;;;;;11.95;100.00;103408.88;2085158;28;44813;-57
2023/12/17 02:33:29;;;;;;;;;48.00;41.00;;;;;11.95;100.00;103408.88;2085171;28;44959;-55
2023/12/17 02:34:30;;;;;;;;;51.00;43.00;;;;;11.97;100.00;103415.13;2089022;28;44862;-53
2023/12/17 02:35:31;;;;;;;;;44.50;38.50;;;;;11.96;100.00;103409.78;2088048;28;44988;-57
2023/12/17 02:36:31;;;;;;;;;50.50;42.75;;;;;11.96;100.00;103409.78;2089183;28;44948;-57
2023/12/17 02:37:32;;;;;;;;;48.75;41.75;;;;;11.97;100.00;103420.44;2085340;28;44929;-56
2023/12/17 02:38:32;;;;;;;;;51.00;42.00;;;;;11.98;100.00;103414.25;2085404;28;44895;-55
2023/12/17 02:39:33;;;;;;;;;49.25;41.25;;;;;11.98;100.00;103410.69;2084386;28;44945;-55
2023/12/17 02:40:34;;;;;;;;;48.25;42.00;;;;;12.00;100.00;103409.84;2084392;28;45558;-58
2023/12/17 02:41:34;;;;;;;;;46.00;40.25;;;;;12.01;100.00;103403.66;2088845;28;45155;-57
2023/12/17 02:42:35;;;;;;;;;48.00;40.00;;;;;12.02;100.00;103401.88;2087124;28;44943;-56
2023/12/17 02:43:36;;;;;;;;;53.50;42.00;;;;;12.00;100.00;103398.31;2089055;28;44901;-57
2023/12/17 02:44:37;;;;;;;;;50.50;42.75;;;;;11.99;100.00;103396.50;2087376;28;44947;-54
2023/12/17 02:45:37;;;;;;;;;44.25;37.75;;;;;11.98;100.00;103398.28;2086672;28;45049;-54
2023/12/17 02:46:38;;;;;;;;;47.75;39.50;;;;;11.98;100.00;103400.94;2089372;28;44830;-58
2023/12/17 02:47:38;;;;;;;;;49.75;41.00;;;;;11.98;100.00;103400.06;2088113;28;44956;-56
2023/12/17 02:48:41;;;;;;;;;48.00;41.00;;;;;11.97;100.00;103401.81;2087956;28;45144;-56
2023/12/17 02:49:41;;;;;;;;;47.60;41.00;;;;;11.98;100.00;103406.28;2088177;28;44902;-55
2023/12/17 02:50:42;;;;;;;;;44.50;38.75;;;;;11.98;100.00;103400.06;2088963;28;44990;-55
2023/12/17 02:51:43;;;;;;;;;46.75;39.25;;;;;11.96;100.00;103396.47;2089408;28;44893;-53
2023/12/17 02:52:43;;;;;;;;;46.50;40.00;;;;;11.96;100.00;103401.81;2088864;28;44826;-53
2023/12/17 02:53:44;;;;;;;;;46.50;38.50;;;;;11.93;100.00;103391.09;2089016;28;44892;-54
2023/12/17 02:54:45;;;;;;;;;52.25;43.25;;;;;11.89;100.00;103390.16;2089112;28;44930;-55
2023/12/17 02:55:45;;;;;;;;;44.00;38.25;;;;;11.88;100.00;103387.47;2088847;28;44917;-55
2023/12/17 02:56:46;;;;;;;;;51.00;43.25;;;;;11.86;100.00;103386.56;2088573;28;44992;-56
2023/12/17 02:57:46;;;;;;;;;49.75;41.75;;;;;11.85;100.00;103387.44;2087474;28;44955;-54
2023/12/17 02:58:47;;;;;;;;;49.00;41.75;;;;;11.83;100.00;103376.75;2088057;28;44854;-56
2023/12/17 02:59:48;;;;;;;;;52.50;44.00;;;;;11.81;100.00;103373.16;2087860;28;44949;-55
2023/12/17 03:00:49;;;;;;;;;49.50;41.75;;;;;11.80;100.00;103366.06;2088864;28;44835;-56
2023/12/17 03:01:50;;;;;;;;;52.75;44.00;;;;;11.75;100.00;103365.06;2088504;28;45169;-55
2023/12/17 03:02:51;;;;;;;;;55.80;45.20;;;;;11.73;100.00;103365.03;2088318;28;45032;-54
2023/12/17 03:03:52;;;;;;;;;52.75;44.50;;;;;11.72;100.00;103349.06;2087088;28;45086;-56
2023/12/17 03:04:52;;;;;;;;;53.50;44.50;;;;;11.72;100.00;103357.03;2088958;28;44949;-55
2023/12/17 03:05:53;;;;;;;;;54.25;43.75;;;;;11.70;100.00;103356.13;2088821;28;44916;-56
2023/12/17 03:06:53;;;;;;;;;52.75;42.75;;;;;11.70;100.00;103357.03;2088665;28;44958;-55
2023/12/17 03:07:54;;;;;;;;;54.75;45.00;;;;;11.68;100.00;103358.72;2087899;28;44853;-54
2023/12/17 03:08:55;;;;;;;;;57.75;47.50;;;;;11.71;100.00;103360.56;2088544;28;44945;-55
2023/12/17 03:09:55;;;;;;;;;54.00;45.00;;;;;11.71;100.00;103357.91;2089342;28;44964;-54
2023/12/17 03:10:56;;;;;;;;;51.00;43.00;;;;;11.72;100.00;103357.94;2088590;28;44877;-56
2023/12/17 03:11:57;;;;;;;;;53.75;44.75;;;;;11.74;100.00;103349.97;2089346;28;44862;-54
2023/12/17 03:12:57;;;;;;;;;48.50;40.50;;;;;11.74;100.00;103347.31;2088617;28;45068;-53
2023/12/17 03:13:58;;;;;;;;;11.25;8.50;;;;;11.75;100.00;103349.09;2088733;28;45103;-52
2023/12/17 03:14:59;;;;;;;;;45.00;37.40;;;;;11.76;100.00;103350.88;2088491;28;44782;-58
2023/12/17 03:16:00;;;;;;;;;47.00;40.25;;;;;11.76;100.00;103348.22;2087933;28;44904;-55
2023/12/17 03:17:00;;;;;;;;;48.75;41.50;;;;;11.75;100.00;103350.00;2088527;28;44962;-56
2023/12/17 03:18:01;;;;;;;;;48.25;39.00;;;;;11.76;100.00;103348.22;2087809;28;45011;-54
2023/12/17 03:19:01;;;;;;;;;47.75;39.50;;;;;11.73;100.00;103348.19;2088701;28;44822;-55
2023/12/17 03:20:06;;;;;;;;;49.00;41.75;;;;;11.73;100.00;103345.53;2088589;28;44912;-56
2023/12/17 03:21:08;;;;;;;;;48.40;39.00;;;;;11.72;100.00;103351.72;2088526;28;44871;-54
2023/12/17 03:22:09;;;;;;;;;46.40;38.20;;;;;11.68;100.00;103342.78;2088645;28;44859;-54
2023/12/17 03:23:09;;;;;;;;;37.75;35.00;;;;;11.68;100.00;103345.44;2088819;28;44938;-56
2023/12/17 03:24:10;;;;;;;;;48.25;39.75;;;;;11.67;100.00;103351.63;2096550;28;45122;-55
2023/12/17 03:25:10;;;;;;;;;24.00;22.50;;;;;11.67;100.00;103348.06;2096231;28;44953;-53
2023/12/17 03:26:11;;;;;;;;;44.00;38.50;;;;;11.67;100.00;103356.06;2087849;28;45063;-53
2023/12/17 03:27:12;;;;;;;;;42.50;36.25;;;;;11.61;100.00;103345.34;2086346;28;44944;-56
2023/12/17 03:28:13;;;;;;;;;39.00;35.25;;;;;11.61;100.00;103346.22;2088548;28;44962;-55
2023/12/17 03:29:14;;;;;;;;;33.00;31.50;;;;;11.60;100.00;103346.22;2087539;28;44900;-54
2023/12/17 03:30:15;;;;;;;;;47.40;37.60;;;;;11.59;100.00;103341.75;2088513;28;44968;-55
2023/12/17 03:31:16;;;;;;;;;45.00;38.20;;;;;11.59;100.00;103337.34;2087702;28;45016;-56
2023/12/17 03:32:17;;;;;;;;;39.00;35.20;;;;;11.59;100.00;103334.69;2086393;28;45176;-54
2023/12/17 03:33:18;;;;;;;;;33.25;32.25;;;;;11.58;100.00;103335.56;2081661;28;45055;-55
2023/12/17 03:34:18;;;;;;;;;38.75;34.75;;;;;11.57;100.00;103335.53;2083836;28;44988;-55
2023/12/17 03:35:19;;;;;;;;;37.00;35.00;;;;;11.57;100.00;103335.53;2088568;28;44897;-55
2023/12/17 03:36:19;;;;;;;;;43.25;34.50;;;;;11.57;100.00;103335.53;2087821;28;44952;-54
2023/12/17 03:37:20;;;;;;;;;41.25;36.00;;;;;11.58;100.00;103342.63;2086245;28;45213;-55
2023/12/17 03:38:21;;;;;;;;;32.25;32.00;;;;;11.57;100.00;103341.75;2086096;28;44857;-55
2023/12/17 03:39:22;;;;;;;;;36.40;34.40;;;;;11.54;100.00;103333.69;2088237;28;44959;-56
2023/12/17 03:40:23;;;;;;;;;38.50;35.00;;;;;11.53;100.00;103336.31;2087371;28;45200;-55
2023/12/17 03:41:25;;;;;;;;;41.75;34.75;;;;;11.53;100.00;103333.66;2087386;28;45480;-55
2023/12/17 03:42:26;;;;;;;;;38.20;35.00;;;;;11.52;100.00;103329.22;2087040;28;44972;-56
2023/12/17 03:43:27;;;;;;;;;39.00;35.00;;;;;11.51;100.00;103333.66;2086343;28;44861;-57
2023/12/17 03:44:29;;;;;;;;;36.00;34.00;;;;;11.50;100.00;103340.72;2088554;28;44879;-53
2023/12/17 03:45:31;;;;;;;;;36.20;34.20;;;;;11.50;100.00;103331.84;2086795;28;44798;-53
2023/12/17 03:46:31;;;;;;;;;37.40;34.00;;;;;11.48;100.00;103331.84;2088177;28;44820;-55
2023/12/17 03:47:32;;;;;;;;;36.25;34.25;;;;;11.47;100.00;103327.41;2088541;28;44807;-55
2023/12/17 03:48:33;;;;;;;;;37.50;34.75;;;;;11.47;100.00;103324.72;2084177;28;44856;-57
2023/12/17 03:49:33;;;;;;;;;31.25;31.25;;;;;11.47;100.00;103321.19;2088214;28;44928;-56
2023/12/17 03:50:34;;;;;;;;;32.75;29.50;;;;;11.47;100.00;103326.50;2085614;28;45081;-56
2023/12/17 03:51:34;;;;;;;;;34.75;31.75;;;;;11.45;100.00;103326.47;2088272;28;44898;-54
2023/12/17 03:52:35;;;;;;;;;37.75;34.00;;;;;11.44;100.00;103324.69;2087906;28;45168;-56
2023/12/17 03:53:36;;;;;;;;;32.00;30.25;;;;;11.45;100.00;103328.25;2085255;28;44967;-56
2023/12/17 03:54:36;;;;;;;;;40.00;35.50;;;;;11.46;100.00;103322.06;2088856;28;44960;-55
2023/12/17 03:55:37;;;;;;;;;37.50;33.25;;;;;11.47;100.00;103324.72;2088719;28;44983;-56
2023/12/17 03:56:46;;;;;;;;;37.50;32.50;;;;;11.48;100.00;103325.63;2087510;28;44937;-55
2023/12/17 03:57:49;;;;;;;;;31.40;30.20;;;;;11.46;100.00;103314.97;2080994;28;44776;-54
2023/12/17 03:58:50;;;;;;;;;33.40;32.40;;;;;11.47;100.00;103310.53;2088371;28;45088;-56
2023/12/17 03:59:51;;;;;;;;;33.50;33.00;;;;;11.47;100.00;103311.44;2088908;28;45049;-56
2023/12/17 04:00:51;;;;;;;;;33.00;32.25;;;;;11.45;100.00;103313.19;2088607;28;44901;-56
2023/12/17 04:01:52;;;;;;;;;30.25;27.50;;;;;11.43;100.00;103312.28;2085357;28;45126;-55
2023/12/17 04:02:53;;;;;;;;;38.20;34.20;;;;;11.42;100.00;103318.44;2088395;28;44787;-56
2023/12/17 04:03:53;;;;;;;;;42.25;34.50;;;;;11.42;100.00;103312.22;2088390;28;44818;-57
2023/12/17 04:04:54;;;;;;;;;37.75;34.25;;;;;11.42;100.00;103320.19;2088374;28;44874;-57
2023/12/17 04:05:57;;;;;;;;;34.75;32.75;;;;;11.41;100.00;103318.41;2080957;28;44903;-58
2023/12/17 04:06:58;;;;;;;;;36.40;34.20;;;;;11.41;100.00;103313.09;2088998;28;44873;-56
2023/12/17 04:07:59;;;;;;;;;37.50;34.25;;;;;11.42;100.00;103315.75;2088285;28;44886;-56
2023/12/17 04:08:59;;;;;;;;;36.00;34.00;;;;;11.42;100.00;103318.44;2088279;28;44783;-56
2023/12/17 04:10:01;;;;;;;;;30.00;28.25;;;;;11.40;100.00;103317.50;2087348;28;44874;-55
2023/12/17 04:11:02;;;;;;;;;34.20;32.80;;;;;11.38;100.00;103318.38;2085416;28;44954;-56
2023/12/17 04:12:03;;;;;;;;;33.75;33.00;;;;;11.34;100.00;103313.88;2088252;28;44965;-55
2023/12/17 04:13:04;;;;;;;;;40.00;36.60;;;;;11.33;100.00;103312.09;2086956;28;44819;-56
2023/12/17 04:14:04;;;;;;;;;39.50;35.25;;;;;11.30;100.00;103306.69;2081280;28;45085;-55
2023/12/17 04:15:05;;;;;;;;;28.25;26.50;;;;;11.26;100.00;103310.19;2088291;28;45009;-57
2023/12/17 04:16:06;;;;;;;;;41.00;35.40;;;;;11.22;100.00;103309.25;2088172;28;44913;-56
2023/12/17 04:17:07;;;;;;;;;39.80;34.80;;;;;11.16;100.00;103302.03;2087702;28;44799;-58
2023/12/17 04:18:08;;;;;;;;;36.00;33.25;;;;;11.14;100.00;103303.78;2087876;28;44920;-55
2023/12/17 04:19:08;;;;;;;;;36.75;33.00;;;;;11.11;100.00;103302.84;2088080;28;44946;-56
2023/12/17 04:20:09;;;;;;;;;35.75;34.25;;;;;11.07;100.00;103306.31;2088308;28;44913;-56
2023/12/17 04:21:10;;;;;;;;;36.80;34.20;;;;;11.05;100.00;103305.38;2081560;28;45288;-53
2023/12/17 04:22:11;;;;;;;;;35.25;32.00;;;;;11.03;100.00;103309.78;2077329;28;45323;-57
2023/12/17 04:23:11;;;;;;;;;34.25;31.25;;;;;11.01;100.00;103303.53;2088440;28;44943;-55
2023/12/17 04:24:12;;;;;;;;;35.50;33.50;;;;;11.00;100.00;103305.31;2087585;28;44876;-57
2023/12/17 04:25:13;;;;;;;;;38.00;33.00;;;;;11.00;100.00;103300.00;2088416;28;44952;-54
2023/12/17 04:26:13;;;;;;;;;37.00;35.25;;;;;11.02;100.00;103303.56;2078141;28;45016;-53
2023/12/17 04:27:14;;;;;;;;;35.50;33.25;;;;;11.03;100.00;103299.16;2078471;28;45202;-55
2023/12/17 04:28:15;;;;;;;;;32.75;31.75;;;;;11.04;100.00;103295.63;2088608;28;44902;-53
2023/12/17 04:29:15;;;;;;;;;21.75;19.00;;;;;11.05;100.00;103302.72;2088274;28;44866;-54
2023/12/17 04:30:16;;;;;;;;;33.50;31.50;;;;;11.05;100.00;103297.41;2088179;28;44905;-57
2023/12/17 04:31:16;;;;;;;;;37.75;33.00;;;;;11.06;100.00;103300.13;2088187;28;44919;-56
2023/12/17 04:32:17;;;;;;;;;42.25;34.50;;;;;11.07;100.00;103299.25;2088448;28;44940;-58
2023/12/17 04:33:17;;;;;;;;;33.00;32.75;;;;;11.07;100.00;103298.34;2091745;28;44965;-57